createdAt,value
2022-10-19T00:02:44.583Z,6.10
2022-10-19T00:06:32.627Z,8.65
2022-10-19T00:10:14.896Z,10.05
2022-10-19T00:13:58.520Z,6.50
2022-10-19T00:17:40.783Z,11.10
2022-10-19T00:21:22.943Z,7.38
2022-10-19T00:25:06.087Z,6.07
2022-10-19T00:28:56.179Z,10.90
2022-10-19T00:32:38.399Z,9.18
2022-10-19T00:36:25.379Z,7.85
2022-10-19T00:40:08.825Z,8.63
2022-10-19T00:44:07.191Z,6.22
2022-10-19T00:47:50.724Z,5.15
2022-10-19T00:51:34.905Z,8.85
2022-10-19T00:55:17.476Z,7.40
2022-10-19T00:58:59.837Z,7.05
2022-10-19T01:02:41.907Z,6.18
2022-10-19T01:06:25.414Z,4.68
2022-10-19T01:10:08.140Z,6.22
2022-10-19T01:14:21.179Z,9.20
2022-10-19T01:18:16.206Z,7.82
2022-10-19T01:22:13.295Z,8.43
2022-10-19T01:26:04.674Z,7.28
2022-10-19T01:30:08.373Z,7.53
2022-10-19T01:34:27.287Z,7.75
2022-10-19T01:38:21.976Z,9.30
2022-10-19T01:42:15.948Z,9.48
2022-10-19T01:46:28.468Z,10.00
2022-10-19T01:50:48.784Z,8.68
2022-10-19T01:54:38.706Z,7.75
2022-10-19T01:58:30.954Z,7.70
2022-10-19T02:02:15.168Z,11.98
2022-10-19T02:05:58.592Z,9.02
2022-10-19T02:09:41.016Z,6.70
2022-10-19T02:13:24.859Z,6.20
2022-10-19T02:17:11.737Z,8.88
2022-10-19T02:20:54.179Z,7.15
2022-10-19T02:24:36.455Z,9.65
2022-10-19T02:28:18.831Z,8.40
2022-10-19T02:32:02.131Z,8.77
2022-10-19T02:35:44.550Z,10.82
2022-10-19T02:39:26.919Z,9.75
2022-10-19T02:43:14.782Z,10.60
2022-10-19T02:47:14.883Z,8.38
2022-10-19T02:50:56.914Z,9.23
2022-10-19T02:54:40.799Z,9.88
2022-10-19T02:58:22.938Z,8.18
2022-10-19T03:02:05.037Z,11.32
2022-10-19T03:05:47.079Z,7.45
2022-10-19T03:09:29.388Z,7.07
2022-10-19T03:13:11.694Z,9.23
2022-10-19T03:16:53.874Z,10.18
2022-10-19T03:20:35.901Z,9.63
2022-10-19T03:24:18.244Z,10.52
2022-10-19T03:28:03.264Z,6.78
2022-10-19T03:31:45.543Z,11.48
2022-10-19T03:35:27.542Z,9.45
2022-10-19T03:39:14.163Z,8.27
2022-10-19T03:42:56.304Z,7.82
2022-10-19T03:46:38.886Z,9.65
2022-10-19T03:50:21.503Z,8.57
2022-10-19T03:54:14.939Z,7.40
2022-10-19T03:57:58.315Z,9.73
2022-10-19T04:01:43.495Z,8.30
2022-10-19T04:05:29.539Z,8.43
2022-10-19T04:09:18.125Z,10.48
2022-10-19T04:13:00.587Z,5.03
2022-10-19T04:16:43.025Z,7.60
2022-10-19T04:20:25.224Z,7.57
2022-10-19T04:24:15.877Z,8.52
2022-10-19T04:27:57.982Z,7.00
2022-10-19T04:31:40.661Z,6.97
2022-10-19T04:35:22.760Z,7.63
2022-10-19T04:39:05.689Z,6.15
2022-10-19T04:42:47.734Z,7.82
2022-10-19T04:46:30.875Z,5.97
2022-10-19T04:50:15.955Z,7.85
2022-10-19T04:53:59.765Z,5.50
2022-10-19T04:57:42.400Z,7.50
2022-10-19T05:01:29.362Z,6.72
2022-10-19T05:05:12.553Z,8.52
2022-10-19T05:08:55.462Z,8.52
2022-10-19T05:12:37.854Z,6.20
2022-10-19T05:16:22.846Z,8.57
2022-10-19T05:20:05.336Z,6.18
2022-10-19T05:23:47.759Z,7.47
2022-10-19T05:27:30.179Z,7.80
2022-10-19T05:31:17.887Z,6.72
2022-10-19T05:35:00.123Z,9.00
2022-10-19T05:38:43.323Z,5.90
2022-10-19T05:42:25.385Z,7.10
2022-10-19T05:46:10.531Z,8.45
2022-10-19T05:49:52.814Z,9.13
2022-10-19T05:53:35.782Z,7.85
2022-10-19T05:57:18.008Z,6.63
2022-10-19T06:01:01.025Z,6.72
2022-10-19T06:04:43.202Z,6.95
2022-10-19T06:08:43.540Z,6.13
2022-10-19T06:12:25.765Z,7.38
2022-10-19T06:16:09.500Z,7.53
2022-10-19T06:19:51.580Z,9.23
2022-10-19T06:35:54.607Z,8.80
2022-10-19T06:39:36.574Z,7.97
2022-10-19T06:43:18.641Z,8.02
2022-10-19T06:47:00.846Z,7.18
2022-10-19T06:50:42.868Z,7.70
2022-10-19T06:54:25.828Z,7.60
2022-10-19T06:58:07.879Z,6.80
2022-10-19T07:01:49.926Z,9.48
2022-10-19T07:05:31.977Z,9.00
2022-10-19T07:09:14.080Z,8.02
2022-10-19T07:12:56.903Z,11.05
2022-10-19T07:16:39.084Z,10.57
2022-10-19T07:20:21.462Z,10.50
2022-10-19T07:24:03.820Z,7.75
2022-10-19T07:27:45.911Z,10.80
2022-10-19T07:31:30.250Z,11.02
2022-10-19T07:35:12.340Z,11.18
2022-10-19T07:38:54.925Z,11.18
2022-10-19T07:42:37.900Z,11.02
2022-10-19T07:46:26.430Z,10.18
2022-10-19T07:50:08.832Z,9.10
2022-10-19T07:53:51.235Z,14.25
2022-10-19T07:57:33.647Z,10.18
2022-10-19T08:01:21.709Z,7.82
2022-10-19T08:05:07.745Z,8.50
2022-10-19T08:08:54.005Z,9.15
2022-10-19T08:12:38.657Z,7.72
2022-10-19T08:16:40.689Z,10.68
2022-10-19T08:20:23.015Z,11.70
2022-10-19T08:24:20.309Z,12.85
2022-10-19T08:28:02.570Z,9.57
2022-10-19T08:31:46.441Z,9.70
2022-10-19T08:35:29.761Z,8.95
2022-10-19T08:39:13.073Z,16.13
2022-10-19T08:43:18.690Z,6.90
2022-10-19T09:07:46.368Z,6.28
2022-10-19T09:11:35.716Z,7.90
2022-10-19T09:15:48.117Z,5.53
2022-10-19T09:19:32.254Z,7.75
2022-10-19T09:23:40.060Z,6.78
2022-10-19T09:27:26.491Z,6.85
2022-10-19T09:31:19.638Z,9.00
2022-10-19T09:35:20.188Z,6.43
2022-10-19T09:39:03.458Z,9.95
2022-10-19T09:51:55.679Z,9.10
2022-10-19T09:55:46.185Z,8.68
2022-10-19T09:59:36.369Z,8.45
2022-10-19T10:07:16.223Z,7.75
2022-10-19T10:11:14.507Z,6.13
2022-10-19T10:14:56.918Z,6.43
2022-10-19T10:18:49.836Z,6.38
2022-10-19T10:22:35.227Z,8.90
2022-10-19T10:26:20.370Z,8.48
2022-10-19T10:30:18.549Z,8.07
2022-10-19T10:34:16.348Z,8.48
2022-10-19T10:38:28.906Z,6.80
2022-10-19T10:42:18.301Z,8.73
2022-10-19T10:46:29.858Z,7.18
2022-10-19T10:50:39.182Z,8.55
2022-10-19T10:54:24.060Z,7.10
2022-10-19T10:58:35.167Z,6.57
2022-10-19T11:02:41.821Z,6.70
2022-10-19T11:06:26.075Z,5.82
2022-10-19T11:10:22.635Z,7.30
2022-10-19T11:14:31.871Z,8.75
2022-10-19T11:18:25.501Z,5.97
2022-10-19T11:22:28.788Z,8.43
2022-10-19T11:26:16.037Z,5.90
2022-10-19T11:30:25.587Z,6.65
2022-10-19T11:34:52.497Z,6.70
2022-10-19T11:38:40.313Z,7.75
2022-10-19T11:42:28.496Z,10.15
2022-10-19T11:46:43.860Z,6.38
2022-10-19T11:50:53.873Z,5.10
2022-10-19T11:54:45.605Z,7.25
2022-10-19T11:58:37.122Z,7.20
2022-10-19T12:03:03.696Z,7.70
2022-10-19T12:07:17.062Z,8.50
2022-10-19T12:11:06.457Z,6.45
2022-10-19T12:14:54.036Z,7.00
2022-10-19T12:18:46.539Z,6.35
2022-10-19T12:22:31.171Z,6.85
2022-10-19T12:30:23.479Z,6.03
2022-10-19T12:34:34.406Z,8.90
2022-10-19T12:38:29.781Z,6.40
2022-10-19T12:42:28.692Z,7.72
2022-10-19T12:46:16.997Z,5.75
2022-10-19T12:49:59.985Z,7.97
2022-10-19T12:53:49.328Z,7.05
2022-10-19T12:57:31.691Z,5.78
2022-10-19T13:01:27.663Z,5.82
2022-10-19T13:05:24.450Z,5.45
2022-10-19T13:09:10.836Z,7.53
2022-10-19T13:12:54.199Z,6.88
2022-10-19T13:16:36.322Z,6.32
2022-10-19T13:20:18.437Z,6.30
2022-10-19T13:24:31.281Z,5.70
2022-10-19T13:28:15.288Z,6.25
2022-10-19T13:32:36.427Z,6.20
2022-10-19T13:36:19.648Z,7.75
2022-10-19T13:40:23.561Z,7.32
2022-10-19T13:44:18.990Z,6.53
2022-10-19T13:48:22.494Z,6.68
2022-10-19T13:52:18.901Z,5.57
2022-10-19T13:56:14.258Z,7.25
2022-10-19T14:00:14.984Z,7.47
2022-10-19T14:04:31.242Z,5.53
2022-10-19T14:08:34.484Z,5.78
2022-10-19T14:12:27.041Z,6.82
2022-10-19T14:16:18.922Z,5.22
2022-10-19T14:20:01.231Z,5.18
2022-10-19T14:23:43.307Z,8.05
2022-10-19T14:27:29.021Z,6.43
2022-10-19T14:31:19.081Z,6.35
2022-10-19T14:38:55.275Z,6.25
2022-10-19T14:42:45.213Z,9.63
2022-10-19T14:46:34.148Z,5.65
2022-10-19T14:50:16.595Z,5.35
2022-10-19T14:54:16.173Z,5.80
2022-10-19T14:57:58.618Z,8.85
2022-10-19T15:01:41.629Z,5.95
2022-10-19T15:05:29.864Z,6.45
2022-10-19T15:09:36.963Z,6.68
2022-10-19T15:13:27.864Z,6.78
2022-10-19T15:17:32.098Z,8.27
2022-10-19T15:21:18.930Z,4.53
2022-10-19T15:25:06.855Z,5.03
2022-10-19T15:28:49.679Z,5.55
2022-10-19T15:32:38.972Z,4.53
2022-10-19T15:36:23.637Z,4.97
2022-10-19T15:40:24.478Z,5.47
2022-10-19T15:44:27.546Z,7.25
2022-10-19T15:48:26.840Z,7.65
2022-10-19T15:52:20.453Z,6.18
2022-10-19T15:59:44.684Z,5.88
2022-10-19T16:03:26.883Z,6.13
2022-10-19T16:07:23.431Z,4.47
2022-10-19T16:11:05.771Z,7.25
2022-10-19T16:14:47.867Z,6.22
2022-10-19T16:19:04.179Z,6.72
2022-10-19T16:22:50.623Z,7.10
2022-10-19T16:26:37.292Z,6.93
2022-10-19T16:30:22.705Z,6.22
2022-10-19T16:34:04.934Z,7.72
2022-10-19T16:37:47.444Z,6.35
2022-10-19T16:41:31.093Z,7.10
2022-10-19T16:45:13.632Z,6.95
2022-10-19T16:48:56.228Z,7.25
2022-10-19T16:52:38.866Z,6.07
2022-10-19T16:56:21.442Z,6.95
2022-10-19T17:00:06.125Z,9.38
2022-10-19T17:03:49.455Z,6.60
2022-10-19T17:07:31.855Z,6.07
2022-10-19T17:11:23.196Z,8.05
2022-10-19T17:15:37.237Z,7.57
2022-10-19T17:19:10.437Z,6.93
2022-10-19T17:22:53.272Z,7.78
2022-10-19T17:26:42.583Z,7.38
2022-10-19T17:30:27.461Z,7.15
2022-10-19T17:34:11.054Z,6.90
2022-10-19T17:37:56.163Z,9.15
2022-10-19T17:41:38.735Z,7.65
2022-10-19T17:45:21.087Z,12.40
2022-10-19T17:49:03.840Z,12.23
2022-10-19T17:52:46.210Z,8.38
2022-10-19T17:56:29.026Z,6.43
2022-10-19T18:00:11.848Z,10.95
2022-10-19T18:03:54.367Z,6.38
2022-10-19T18:07:37.651Z,7.78
2022-10-19T18:11:22.237Z,7.30
2022-10-19T18:15:05.636Z,10.20
2022-10-19T18:18:51.904Z,8.32
2022-10-19T18:22:34.651Z,8.57
2022-10-19T18:34:15.174Z,10.48
2022-10-19T18:37:57.644Z,11.70
2022-10-19T18:41:40.989Z,9.45
2022-10-19T18:45:23.641Z,9.23
2022-10-19T18:49:08.494Z,11.00
2022-10-19T18:52:50.884Z,9.98
2022-10-19T18:56:36.885Z,9.30
2022-10-19T19:00:19.096Z,10.73
2022-10-19T19:04:08.566Z,10.73
2022-10-19T19:07:50.846Z,15.43
2022-10-19T19:11:36.891Z,10.88
2022-10-19T19:15:20.024Z,12.52
2022-10-19T19:19:02.705Z,11.77
2022-10-19T19:22:44.917Z,10.90
2022-10-19T19:26:29.991Z,8.85
2022-10-19T19:30:12.293Z,9.70
2022-10-19T19:33:54.483Z,10.60
2022-10-19T19:37:36.944Z,11.43
2022-10-19T19:41:19.773Z,10.90
2022-10-19T19:45:02.365Z,12.45
2022-10-19T19:54:13.499Z,11.55
2022-10-19T19:57:58.833Z,11.45
2022-10-19T20:01:41.548Z,11.13
2022-10-19T20:05:24.857Z,10.98
2022-10-19T20:09:08.321Z,10.77
2022-10-19T20:12:50.346Z,10.35
2022-10-19T20:16:34.532Z,11.20
2022-10-19T20:20:19.734Z,11.90
2022-10-19T20:24:02.161Z,11.18
2022-10-19T20:27:44.188Z,11.20
2022-10-19T20:31:26.243Z,13.00
2022-10-19T20:35:08.722Z,11.55
2022-10-19T20:38:53.267Z,14.85
2022-10-19T20:42:35.422Z,10.30
2022-10-19T20:46:24.298Z,13.43
2022-10-19T20:50:07.939Z,11.80
2022-10-19T20:53:51.331Z,13.15
2022-10-19T20:57:33.342Z,10.05
2022-10-19T21:01:18.292Z,13.10
2022-10-19T21:05:00.519Z,15.73
2022-10-19T21:08:43.227Z,16.40
2022-10-19T21:12:25.518Z,14.25
2022-10-19T21:16:18.857Z,17.52
2022-10-19T21:20:00.833Z,13.82
2022-10-19T21:23:44.506Z,13.32
2022-10-19T21:27:26.515Z,14.68
2022-10-19T21:31:09.915Z,14.52
2022-10-19T21:34:52.018Z,16.23
2022-10-19T21:38:34.730Z,13.05
2022-10-19T21:42:16.760Z,16.25
2022-10-19T21:46:02.224Z,16.52
2022-10-19T21:49:44.175Z,18.02
2022-10-19T21:53:26.404Z,13.07
2022-10-19T21:57:08.908Z,17.15
2022-10-19T22:00:51.009Z,16.05
2022-10-19T22:04:32.963Z,13.23
2022-10-19T22:08:15.095Z,15.40
2022-10-19T22:11:57.286Z,14.05
2022-10-19T22:15:40.621Z,12.77
2022-10-19T22:19:22.787Z,14.38
2022-10-19T22:23:06.801Z,13.80
2022-10-19T22:26:50.873Z,18.23
2022-10-19T22:30:33.026Z,13.60
2022-10-19T22:34:17.100Z,15.00
2022-10-19T22:37:59.195Z,16.13
2022-10-19T22:42:19.162Z,20.15
2022-10-19T22:46:01.518Z,13.27
2022-10-19T22:49:43.758Z,16.98
2022-10-19T22:53:25.902Z,17.13
2022-10-19T22:57:08.084Z,15.98
2022-10-19T23:01:22.867Z,18.98
2022-10-19T23:05:05.569Z,14.57
2022-10-19T23:08:48.240Z,14.63
2022-10-19T23:12:30.616Z,16.45
2022-10-19T23:16:12.831Z,16.67
2022-10-19T23:19:54.897Z,15.85
2022-10-19T23:23:37.338Z,10.77
2022-10-19T23:27:20.866Z,13.85
2022-10-19T23:31:30.067Z,16.73
2022-10-19T23:35:12.266Z,17.90
2022-10-19T23:38:56.379Z,15.88
2022-10-19T23:42:38.526Z,14.38
2022-10-19T23:46:21.458Z,12.20
2022-10-19T23:50:03.850Z,14.98
2022-10-19T23:53:47.815Z,11.98
2022-10-19T23:57:30.087Z,15.65
